| time (UTC) | temp F | wind direction | speed MPH | gust MPH | rain 1hr in | rain 24hr in | rain mn in | humidity % | barometer mb |
| 20260508065504 | 62 | 304 | 0.0 | 0.0 | 0.00 | 0.00 | 0.00 | 78 | 1017.3 |
| 20260508065004 | 62 | 304 | 0.0 | 0.0 | 0.00 | 0.00 | 0.00 | 79 | 1017.2 |
| 20260508064504 | 62 | 304 | 0.0 | 0.0 | 0.00 | 0.00 | 0.00 | 77 | 1017.2 |
| 20260508064005 | 62 | 304 | 0.0 | 0.0 | 0.00 | 0.00 | 0.00 | 80 | 1017.2 |
| 20260508063504 | 62 | 304 | 0.0 | 0.0 | 0.00 | 0.00 | 0.00 | 82 | 1017.2 |
| 20260508063004 | 63 | 304 | 0.0 | 0.0 | 0.00 | 0.00 | 0.00 | 80 | 1017.1 |
| 20260508062504 | 63 | 304 | 0.0 | 0.0 | 0.00 | 0.00 | 0.00 | 79 | 1017.3 |
| 20260508062004 | 63 | 304 | 0.0 | 0.0 | 0.00 | 0.00 | 0.00 | 80 | 1017.4 |
| 20260508060504 | 63 | 304 | 0.0 | 0.0 | 0.00 | 0.00 | 0.00 | 81 | 1017.4 |
| 20260508055004 | 63 | 304 | 1.0 | 2.0 | 0.00 | 0.00 | 0.00 | 80 | 1017.5 |
| 20260508054504 | 63 | 304 | 1.0 | 2.0 | 0.00 | 0.00 | 0.00 | 80 | 1017.5 |
| 20260508054004 | 63 | 304 | 1.0 | 2.0 | 0.00 | 0.00 | 0.00 | 80 | 1017.5 |
| 20260508053503 | 63 | 304 | 1.0 | 2.0 | 0.00 | 0.00 | 0.00 | 81 | 1017.6 |
| 20260508053004 | 62 | 304 | 2.0 | 3.0 | 0.00 | 0.00 | 0.00 | 81 | 1017.5 |
| 20260508052504 | 62 | 304 | 1.0 | 2.0 | 0.00 | 0.00 | 0.00 | 82 | 1017.7 |
| 20260508050504 | 62 | 304 | 0.0 | 0.0 | 0.00 | 0.00 | 0.00 | 82 | 1017.8 |
| 20260508050004 | 62 | 304 | 0.0 | 0.0 | 0.00 | 0.00 | 0.00 | 82 | 1017.8 |
| 20260508045004 | 62 | 304 | 0.0 | 0.0 | 0.00 | 0.00 | 0.00 | 82 | 1017.7 |
| 20260508044004 | 63 | 304 | 0.0 | 0.0 | 0.00 | 0.00 | 0.00 | 82 | 1017.7 |
| 20260508043504 | 63 | 304 | 0.0 | 0.0 | 0.00 | 0.00 | 0.00 | 82 | 1017.8 |
| 20260508043004 | 63 | 304 | 0.0 | 0.0 | 0.00 | 0.00 | 0.00 | 82 | 1017.6 |
| 20260508042504 | 63 | 304 | 0.0 | 0.0 | 0.00 | 0.00 | 0.00 | 81 | 1017.7 |
| 20260508042004 | 64 | 304 | 0.0 | 0.0 | 0.00 | 0.00 | 0.00 | 81 | 1017.7 |
| 20260508041505 | 64 | 304 | 0.0 | 0.0 | 0.00 | 0.00 | 0.00 | 81 | 1017.6 |
| 20260508040504 | 64 | 304 | 0.0 | 0.0 | 0.00 | 0.00 | 0.00 | 80 | 1017.7 |
| 20260508035004 | 65 | 304 | 0.0 | 0.0 | 0.00 | 0.00 | 0.00 | 79 | 1017.4 |
| 20260508034504 | 65 | 304 | 0.0 | 0.0 | 0.00 | 0.00 | 0.00 | 78 | 1017.5 |
| 20260508034005 | 65 | 304 | 0.0 | 0.0 | 0.00 | 0.00 | 0.00 | 78 | 1017.4 |
| 20260508033504 | 65 | 304 | 0.0 | 0.0 | 0.00 | 0.00 | 0.00 | 78 | 1017.4 |
| 20260508033004 | 66 | 304 | 0.0 | 0.0 | 0.00 | 0.00 | 0.00 | 77 | 1017.3 |
| 20260508032004 | 67 | 304 | 1.0 | 2.0 | 0.00 | 0.00 | 0.00 | 76 | 1017.3 |
| 20260508031504 | 67 | 304 | 0.0 | 1.0 | 0.00 | 0.00 | 0.00 | 75 | 1017.2 |
| 20260508030504 | 68 | 304 | 1.0 | 2.0 | 0.00 | 0.00 | 0.00 | 73 | 1017.3 |
| 20260508030004 | 68 | 304 | 0.0 | 1.0 | 0.00 | 0.00 | 0.00 | 73 | 1017.1 |
| 20260508025504 | 69 | 304 | 0.0 | 1.0 | 0.00 | 0.00 | 0.00 | 72 | 1017.1 |
| 20260508025004 | 69 | 304 | 0.0 | 1.0 | 0.00 | 0.00 | 0.00 | 71 | 1017.1 |
| 20260508024504 | 69 | 304 | 1.0 | 2.0 | 0.00 | 0.00 | 0.00 | 71 | 1017.2 |
| 20260508024004 | 70 | 304 | 0.0 | 1.0 | 0.00 | 0.00 | 0.00 | 70 | 1016.9 |
| 20260508023504 | 70 | 304 | 1.0 | 2.0 | 0.00 | 0.00 | 0.00 | 70 | 1017.0 |
| 20260508023004 | 71 | 304 | 1.0 | 3.0 | 0.00 | 0.00 | 0.00 | 69 | 1017.1 |
| 20260508022504 | 71 | 303 | 2.0 | 3.0 | 0.00 | 0.00 | 0.00 | 68 | 1017.0 |
| 20260508022004 | 71 | 303 | 1.0 | 3.0 | 0.00 | 0.00 | 0.00 | 68 | 1017.0 |
| 20260508021504 | 72 | 301 | 1.0 | 3.0 | 0.00 | 0.00 | 0.00 | 68 | 1017.1 |
| 20260508021004 | 72 | 284 | 2.0 | 3.0 | 0.00 | 0.00 | 0.00 | 66 | 1017.1 |
| 20260508020504 | 73 | 284 | 2.0 | 3.0 | 0.00 | 0.00 | 0.00 | 65 | 1017.1 |
| 20260508020004 | 73 | 284 | 2.0 | 3.0 | 0.00 | 0.00 | 0.00 | 65 | 1017.0 |
| 20260508015504 | 74 | 252 | 1.0 | 3.0 | 0.00 | 0.00 | 0.00 | 65 | 1017.1 |
| 20260508015004 | 73 | 252 | 1.0 | 5.0 | 0.00 | 0.00 | 0.00 | 65 | 1017.0 |
| 20260508014504 | 73 | 255 | 1.0 | 5.0 | 0.00 | 0.00 | 0.00 | 65 | 1017.1 |
| 20260508014004 | 73 | 254 | 1.0 | 3.0 | 0.00 | 0.00 | 0.00 | 65 | 1017.0 |
| 20260508012504 | 74 | 276 | 5.0 | 8.0 | 0.00 | 0.00 | 0.00 | 64 | 1017.3 |
| 20260508012003 | 74 | 261 | 2.0 | 7.0 | 0.00 | 0.00 | 0.00 | 63 | 1017.3 |
| 20260508011504 | 75 | 276 | 3.0 | 3.0 | 0.00 | 0.00 | 0.00 | 63 | 1017.3 |
| 20260508011004 | 75 | 244 | 4.0 | 8.0 | 0.00 | 0.00 | 0.00 | 63 | 1017.3 |
| 20260508010504 | 75 | 314 | 2.0 | 8.0 | 0.00 | 0.00 | 0.00 | 63 | 1017.3 |
| 20260508010006 | 75 | 271 | 2.0 | 6.0 | 0.00 | 0.00 | 0.00 | 63 | 1017.1 |
| 20260508005506 | 75 | 246 | 3.0 | 8.0 | 0.00 | 0.00 | 0.00 | 62 | 1017.1 |
| 20260508005006 | 76 | 273 | 2.0 | 6.0 | 0.00 | 0.00 | 0.00 | 62 | 1017.1 |
| 20260508004506 | 76 | 265 | 3.0 | 6.0 | 0.00 | 0.00 | 0.00 | 61 | 1017.0 |
| 20260508004005 | 76 | 341 | 2.0 | 7.0 | 0.00 | 0.00 | 0.00 | 60 | 1017.2 |
| 20260508003505 | 75 | 268 | 2.0 | 7.0 | 0.00 | 0.00 | 0.00 | 62 | 1017.2 |
| 20260508003006 | 75 | 274 | 2.0 | 8.0 | 0.00 | 0.00 | 0.00 | 63 | 1017.1 |
| 20260508002506 | 76 | 272 | 2.0 | 7.0 | 0.00 | 0.00 | 0.00 | 63 | 1017.1 |
| 20260508002006 | 76 | 244 | 3.0 | 7.0 | 0.00 | 0.00 | 0.00 | 60 | 1017.0 |
| 20260508001506 | 76 | 264 | 4.0 | 7.0 | 0.00 | 0.00 | 0.00 | 61 | 1017.1 |
| 20260508000006 | 77 | 242 | 2.0 | 5.0 | 0.00 | 0.00 | 0.00 | 60 | 1017.0 |
| 20260507235505 | 76 | 260 | 2.0 | 6.0 | 0.00 | 0.00 | 0.00 | 61 | 1017.0 |
| 20260507235006 | 76 | 277 | 2.0 | 9.0 | 0.00 | 0.00 | 0.00 | 63 | 1017.1 |
| 20260507234005 | 76 | 276 | 5.0 | 9.0 | 0.00 | 0.00 | 0.00 | 61 | 1017.1 |
| 20260507233006 | 77 | 274 | 2.0 | 7.0 | 0.00 | 0.00 | 0.00 | 61 | 1017.1 |
| 20260507232505 | 77 | 281 | 3.0 | 9.0 | 0.00 | 0.00 | 0.00 | 58 | 1017.1 |
| 20260507232005 | 78 | 263 | 3.0 | 8.0 | 0.00 | 0.00 | 0.00 | 59 | 1017.2 |
| 20260507231506 | 78 | 294 | 2.0 | 7.0 | 0.00 | 0.00 | 0.00 | 59 | 1017.3 |
| 20260507230505 | 78 | 260 | 3.0 | 7.0 | 0.00 | 0.00 | 0.00 | 58 | 1017.5 |
| 20260507230006 | 78 | 296 | 1.0 | 3.0 | 0.00 | 0.00 | 0.00 | 62 | 1017.4 |
| 20260507225505 | 77 | 237 | 3.0 | 6.0 | 0.00 | 0.00 | 0.00 | 63 | 1017.4 |
| 20260507225005 | 78 | 259 | 3.0 | 6.0 | 0.00 | 0.00 | 0.00 | 62 | 1017.5 |
| 20260507224506 | 78 | 266 | 4.0 | 8.0 | 0.00 | 0.00 | 0.00 | 59 | 1017.6 |
| 20260507224006 | 78 | 175 | 2.0 | 6.0 | 0.00 | 0.00 | 0.00 | 59 | 1017.7 |
| 20260507223505 | 79 | 340 | 3.0 | 5.0 | 0.00 | 0.00 | 0.00 | 59 | 1017.7 |
| 20260507223005 | 78 | 191 | 2.0 | 3.0 | 0.00 | 0.00 | 0.00 | 64 | 1017.8 |
| 20260507222506 | 77 | 5 | 2.0 | 5.0 | 0.00 | 0.00 | 0.00 | 60 | 1017.8 |
| 20260507222006 | 77 | 252 | 2.0 | 6.0 | 0.00 | 0.00 | 0.00 | 65 | 1018.0 |
| 20260507221505 | 76 | 257 | 3.0 | 6.0 | 0.00 | 0.00 | 0.00 | 62 | 1018.1 |
| 20260507220006 | 76 | 31 | 2.0 | 7.0 | 0.00 | 0.00 | 0.00 | 62 | 1018.0 |
| 20260507215505 | 76 | 186 | 4.0 | 9.0 | 0.00 | 0.00 | 0.00 | 66 | 1018.1 |
| 20260507215006 | 75 | 180 | 3.0 | 8.0 | 0.00 | 0.00 | 0.00 | 68 | 1018.0 |
| 20260507214505 | 75 | 183 | 6.0 | 12.0 | 0.00 | 0.00 | 0.00 | 67 | 1018.0 |
| 20260507214006 | 75 | 210 | 4.0 | 9.0 | 0.00 | 0.00 | 0.00 | 69 | 1018.2 |
| 20260507213505 | 75 | 250 | 5.0 | 8.0 | 0.00 | 0.00 | 0.00 | 67 | 1018.2 |
| 20260507213006 | 74 | 191 | 5.0 | 9.0 | 0.00 | 0.00 | 0.00 | 69 | 1018.0 |
| 20260507212505 | 74 | 199 | 5.0 | 10.0 | 0.00 | 0.00 | 0.00 | 70 | 1018.3 |
| 20260507212006 | 74 | 211 | 6.0 | 9.0 | 0.00 | 0.00 | 0.00 | 68 | 1018.2 |
| 20260507211506 | 74 | 179 | 5.0 | 12.0 | 0.00 | 0.00 | 0.00 | 69 | 1018.2 |
| 20260507210505 | 74 | 210 | 3.0 | 9.0 | 0.00 | 0.00 | 0.00 | 69 | 1018.3 |
| 20260507205506 | 74 | 197 | 5.0 | 10.0 | 0.00 | 0.00 | 0.00 | 68 | 1018.5 |
| 20260507205006 | 73 | 201 | 4.0 | 10.0 | 0.00 | 0.00 | 0.00 | 68 | 1018.6 |
| 20260507204505 | 74 | 208 | 7.0 | 12.0 | 0.00 | 0.00 | 0.00 | 67 | 1018.5 |
| 20260507203506 | 74 | 269 | 5.0 | 8.0 | 0.00 | 0.00 | 0.00 | 64 | 1018.7 |
| 20260507202506 | 74 | 266 | 3.0 | 7.0 | 0.00 | 0.00 | 0.00 | 66 | 1018.7 |
| 20260507201506 | 73 | 201 | 3.0 | 8.0 | 0.00 | 0.00 | 0.00 | 68 | 1018.6 |
| 20260507201005 | 73 | 189 | 5.0 | 10.0 | 0.00 | 0.00 | 0.00 | 64 | 1018.8 |
| 20260507200006 | 73 | 216 | 3.0 | 10.0 | 0.00 | 0.00 | 0.00 | 66 | 1018.7 |
| 20260507195506 | 73 | 243 | 4.0 | 9.0 | 0.00 | 0.00 | 0.00 | 68 | 1018.7 |
| 20260507195005 | 73 | 200 | 6.0 | 8.0 | 0.00 | 0.00 | 0.00 | 66 | 1018.8 |
| 20260507194505 | 73 | 207 | 6.0 | 8.0 | 0.00 | 0.00 | 0.00 | 66 | 1018.8 |
| 20260507193506 | 73 | 222 | 3.0 | 9.0 | 0.00 | 0.00 | 0.00 | 67 | 1018.8 |
| 20260507193006 | 73 | 186 | 3.0 | 9.0 | 0.00 | 0.00 | 0.00 | 67 | 1018.9 |
| 20260507192506 | 72 | 202 | 5.0 | 6.0 | 0.00 | 0.00 | 0.00 | 66 | 1019.0 |
| 20260507192005 | 72 | 244 | 3.0 | 8.0 | 0.00 | 0.00 | 0.00 | 68 | 1018.9 |
| 20260507191005 | 72 | 186 | 5.0 | 9.0 | 0.00 | 0.00 | 0.00 | 65 | 1019.1 |
| 20260507190505 | 72 | 194 | 4.0 | 7.0 | 0.00 | 0.00 | 0.00 | 67 | 1019.0 |
| 20260507185505 | 72 | 220 | 3.0 | 8.0 | 0.00 | 0.00 | 0.00 | 68 | 1018.9 |
| 20260507185005 | 72 | 221 | 5.0 | 8.0 | 0.00 | 0.00 | 0.00 | 68 | 1019.1 |
| 20260507184506 | 72 | 207 | 4.0 | 6.0 | 0.00 | 0.00 | 0.00 | 67 | 1019.2 |
| 20260507184006 | 71 | 215 | 4.0 | 7.0 | 0.00 | 0.00 | 0.00 | 68 | 1019.2 |
| 20260507183505 | 71 | 207 | 1.0 | 7.0 | 0.00 | 0.00 | 0.00 | 68 | 1019.2 |
| 20260507183005 | 71 | 192 | 3.0 | 8.0 | 0.00 | 0.00 | 0.00 | 68 | 1019.3 |
| 20260507182006 | 71 | 209 | 3.0 | 9.0 | 0.00 | 0.00 | 0.00 | 67 | 1019.2 |
| 20260507181505 | 71 | 221 | 2.0 | 6.0 | 0.00 | 0.00 | 0.00 | 66 | 1019.1 |
| 20260507180505 | 70 | 218 | 4.0 | 7.0 | 0.00 | 0.00 | 0.00 | 67 | 1019.3 |
| 20260507180005 | 70 | 221 | 0.0 | 3.0 | 0.00 | 0.00 | 0.00 | 66 | 1019.1 |
| 20260507175505 | 70 | 221 | 2.0 | 6.0 | 0.00 | 0.00 | 0.00 | 66 | 1019.0 |
| 20260507175005 | 70 | 242 | 2.0 | 5.0 | 0.00 | 0.00 | 0.00 | 66 | 1019.1 |
| 20260507174506 | 70 | 179 | 2.0 | 7.0 | 0.00 | 0.00 | 0.00 | 66 | 1019.1 |
| 20260507174005 | 70 | 226 | 3.0 | 6.0 | 0.00 | 0.00 | 0.00 | 69 | 1018.9 |
| 20260507173506 | 69 | 251 | 2.0 | 5.0 | 0.00 | 0.00 | 0.00 | 70 | 1019.0 |
| 20260507173006 | 69 | 229 | 3.0 | 6.0 | 0.00 | 0.00 | 0.00 | 69 | 1019.0 |
| 20260507171005 | 68 | 125 | 2.0 | 6.0 | 0.00 | 0.00 | 0.00 | 70 | 1019.1 |
| 20260507170506 | 68 | 177 | 3.0 | 8.0 | 0.00 | 0.00 | 0.00 | 70 | 1019.2 |
| 20260507170006 | 68 | 218 | 3.0 | 5.0 | 0.00 | 0.00 | 0.00 | 70 | 1019.1 |
| 20260507165506 | 67 | 213 | 2.0 | 5.0 | 0.00 | 0.00 | 0.00 | 70 | 1019.2 |
| 20260507164505 | 67 | 214 | 3.0 | 5.0 | 0.00 | 0.00 | 0.00 | 70 | 1019.3 |
| 20260507164006 | 68 | 236 | 2.0 | 3.0 | 0.00 | 0.00 | 0.00 | 71 | 1019.2 |
| 20260507163006 | 66 | 237 | 1.0 | 3.0 | 0.00 | 0.00 | 0.00 | 75 | 1019.3 |
| 20260507162506 | 66 | 237 | 0.0 | 2.0 | 0.00 | 0.00 | 0.00 | 73 | 1019.4 |
| 20260507162005 | 66 | 237 | 2.0 | 5.0 | 0.00 | 0.00 | 0.00 | 72 | 1019.3 |
| 20260507161509 | 66 | 237 | 2.0 | 3.0 | 0.00 | 0.00 | 0.00 | 73 | 1019.2 |
| 20260507155505 | 66 | 273 | 0.0 | 2.0 | 0.00 | 0.00 | 0.00 | 72 | 1019.2 |
| 20260507155006 | 66 | 273 | 1.0 | 3.0 | 0.00 | 0.00 | 0.00 | 71 | 1019.3 |
| 20260507154506 | 66 | 273 | 0.0 | 0.0 | 0.00 | 0.00 | 0.00 | 71 | 1019.3 |
| 20260507154007 | 66 | 273 | 1.0 | 2.0 | 0.00 | 0.00 | 0.00 | 72 | 1019.4 |
| 20260507153506 | 66 | 273 | 0.0 | 1.0 | 0.00 | 0.00 | 0.00 | 73 | 1019.4 |
| 20260507153006 | 66 | 273 | 0.0 | 2.0 | 0.00 | 0.00 | 0.00 | 73 | 1019.2 |
| 20260507152506 | 65 | 273 | 0.0 | 0.0 | 0.00 | 0.00 | 0.00 | 73 | 1019.2 |
| 20260507152006 | 65 | 273 | 0.0 | 0.0 | 0.00 | 0.00 | 0.00 | 76 | 1019.2 |
| 20260507151506 | 64 | 273 | 0.0 | 0.0 | 0.00 | 0.00 | 0.00 | 78 | 1019.1 |
| 20260507151005 | 63 | 273 | 0.0 | 0.0 | 0.00 | 0.00 | 0.00 | 79 | 1019.2 |
| 20260507150506 | 62 | 273 | 0.0 | 0.0 | 0.00 | 0.00 | 0.00 | 80 | 1019.2 |
| 20260507150006 | 62 | 273 | 0.0 | 0.0 | 0.00 | 0.00 | 0.00 | 82 | 1019.2 |
| 20260507145505 | 61 | 273 | 0.0 | 0.0 | 0.00 | 0.00 | 0.00 | 83 | 1019.0 |
| 20260507145006 | 60 | 273 | 0.0 | 0.0 | 0.00 | 0.00 | 0.00 | 84 | 1019.2 |
| 20260507144505 | 60 | 273 | 0.0 | 0.0 | 0.00 | 0.00 | 0.00 | 85 | 1019.1 |
| 20260507144005 | 60 | 273 | 0.0 | 0.0 | 0.00 | 0.00 | 0.00 | 83 | 1019.1 |
| 20260507143506 | 60 | 273 | 0.0 | 0.0 | 0.00 | 0.00 | 0.00 | 84 | 1019.1 |
| 20260507143005 | 60 | 273 | 0.0 | 0.0 | 0.00 | 0.00 | 0.00 | 84 | 1019.0 |
| 20260507142005 | 59 | 273 | 0.0 | 0.0 | 0.00 | 0.00 | 0.00 | 84 | 1019.1 |
| 20260507141505 | 59 | 273 | 0.0 | 0.0 | 0.00 | 0.00 | 0.00 | 83 | 1019.1 |
| 20260507141007 | 59 | 273 | 0.0 | 0.0 | 0.00 | 0.00 | 0.00 | 84 | 1019.1 |
| 20260507140006 | 58 | 273 | 0.0 | 0.0 | 0.00 | 0.00 | 0.00 | 86 | 1018.8 |
| 20260507135506 | 58 | 273 | 0.0 | 0.0 | 0.00 | 0.00 | 0.00 | 86 | 1018.7 |
| 20260507135005 | 58 | 273 | 0.0 | 0.0 | 0.00 | 0.00 | 0.00 | 86 | 1018.7 |
| 20260507134505 | 57 | 273 | 0.0 | 0.0 | 0.00 | 0.00 | 0.00 | 86 | 1018.6 |
| 20260507134009 | 57 | 273 | 0.0 | 0.0 | 0.00 | 0.00 | 0.00 | 86 | 1018.6 |
| 20260507132506 | 57 | 273 | 0.0 | 0.0 | 0.00 | 0.00 | 0.00 | 87 | 1018.5 |
| 20260507132005 | 57 | 273 | 0.0 | 0.0 | 0.00 | 0.00 | 0.00 | 87 | 1018.4 |
| 20260507131005 | 57 | 273 | 0.0 | 0.0 | 0.00 | 0.00 | 0.00 | 88 | 1018.4 |
| 20260507130505 | 57 | 273 | 0.0 | 0.0 | 0.00 | 0.00 | 0.00 | 88 | 1018.3 |
| 20260507130005 | 56 | 273 | 0.0 | 0.0 | 0.00 | 0.00 | 0.00 | 88 | 1018.4 |
| 20260507125005 | 56 | 273 | 0.0 | 0.0 | 0.00 | 0.00 | 0.00 | 89 | 1018.3 |
| 20260507124505 | 56 | 273 | 0.0 | 0.0 | 0.00 | 0.00 | 0.00 | 89 | 1018.3 |
| 20260507124005 | 56 | 273 | 0.0 | 0.0 | 0.00 | 0.00 | 0.00 | 89 | 1018.3 |
| 20260507123505 | 57 | 273 | 0.0 | 0.0 | 0.00 | 0.00 | 0.00 | 88 | 1018.3 |
| 20260507123005 | 57 | 273 | 0.0 | 0.0 | 0.00 | 0.00 | 0.00 | 89 | 1018.3 |
| 20260507122506 | 57 | 273 | 0.0 | 0.0 | 0.00 | 0.00 | 0.00 | 88 | 1018.3 |
| 20260507122005 | 57 | 273 | 0.0 | 0.0 | 0.00 | 0.00 | 0.00 | 89 | 1018.3 |
| 20260507121006 | 57 | 273 | 0.0 | 0.0 | 0.00 | 0.00 | 0.00 | 89 | 1018.2 |
| 20260507115505 | 57 | 273 | 0.0 | 0.0 | 0.00 | 0.00 | 0.00 | 89 | 1018.4 |
| 20260507115005 | 56 | 273 | 0.0 | 0.0 | 0.00 | 0.00 | 0.00 | 90 | 1018.4 |
| 20260507114505 | 56 | 273 | 0.0 | 0.0 | 0.00 | 0.00 | 0.00 | 90 | 1018.4 |
| 20260507114005 | 56 | 273 | 1.0 | 2.0 | 0.00 | 0.00 | 0.00 | 90 | 1018.4 |
| 20260507113506 | 56 | 273 | 1.0 | 2.0 | 0.00 | 0.00 | 0.00 | 90 | 1018.3 |
| 20260507112506 | 56 | 273 | 1.0 | 3.0 | 0.00 | 0.00 | 0.00 | 90 | 1018.4 |
| 20260507112005 | 56 | 273 | 2.0 | 3.0 | 0.00 | 0.00 | 0.00 | 90 | 1018.4 |
| 20260507111005 | 56 | 273 | 1.0 | 2.0 | 0.00 | 0.00 | 0.00 | 90 | 1018.4 |
| 20260507110505 | 56 | 273 | 0.0 | 2.0 | 0.00 | 0.00 | 0.00 | 91 | 1018.6 |
| 20260507110006 | 56 | 273 | 1.0 | 2.0 | 0.00 | 0.00 | 0.00 | 91 | 1018.4 |
| 20260507105505 | 56 | 273 | 1.0 | 3.0 | 0.00 | 0.00 | 0.00 | 90 | 1018.3 |
| 20260507105005 | 56 | 273 | 1.0 | 2.0 | 0.00 | 0.00 | 0.00 | 90 | 1018.4 |
| 20260507104006 | 56 | 273 | 0.0 | 0.0 | 0.00 | 0.00 | 0.00 | 89 | 1018.3 |
| 20260507103505 | 57 | 273 | 0.0 | 0.0 | 0.00 | 0.00 | 0.00 | 89 | 1018.4 |
| 20260507102505 | 57 | 273 | 0.0 | 0.0 | 0.00 | 0.00 | 0.00 | 88 | 1018.3 |
| 20260507102007 | 57 | 273 | 0.0 | 0.0 | 0.00 | 0.00 | 0.00 | 88 | 1018.3 |
| 20260507101509 | 57 | 273 | 0.0 | 0.0 | 0.00 | 0.00 | 0.00 | 88 | 1018.3 |
| 20260507101006 | 57 | 273 | 0.0 | 0.0 | 0.00 | 0.00 | 0.00 | 88 | 1018.3 |
| 20260507100006 | 57 | 273 | 0.0 | 0.0 | 0.00 | 0.00 | 0.00 | 89 | 1018.4 |
| 20260507095505 | 57 | 273 | 0.0 | 0.0 | 0.00 | 0.00 | 0.00 | 89 | 1018.4 |
| 20260507094505 | 57 | 273 | 0.0 | 0.0 | 0.00 | 0.00 | 0.00 | 90 | 1018.3 |
| 20260507094005 | 57 | 273 | 0.0 | 0.0 | 0.00 | 0.00 | 0.00 | 90 | 1018.4 |
| 20260507093505 | 57 | 273 | 0.0 | 0.0 | 0.00 | 0.00 | 0.00 | 90 | 1018.3 |
| 20260507093006 | 57 | 273 | 0.0 | 0.0 | 0.00 | 0.00 | 0.00 | 89 | 1018.5 |
| 20260507092505 | 57 | 273 | 0.0 | 0.0 | 0.00 | 0.00 | 0.00 | 90 | 1018.6 |
| 20260507092005 | 57 | 273 | 0.0 | 0.0 | 0.00 | 0.00 | 0.00 | 89 | 1018.6 |
| 20260507091005 | 57 | 273 | 0.0 | 0.0 | 0.00 | 0.00 | 0.00 | 89 | 1018.6 |
| 20260507090506 | 57 | 273 | 0.0 | 0.0 | 0.00 | 0.00 | 0.00 | 90 | 1018.7 |
| 20260507085005 | 57 | 273 | 0.0 | 0.0 | 0.00 | 0.00 | 0.00 | 90 | 1018.9 |
| 20260507084506 | 57 | 273 | 0.0 | 0.0 | 0.00 | 0.00 | 0.00 | 91 | 1018.8 |
| 20260507084005 | 56 | 273 | 0.0 | 0.0 | 0.00 | 0.00 | 0.00 | 91 | 1018.9 |
| 20260507083506 | 56 | 273 | 0.0 | 0.0 | 0.00 | 0.00 | 0.00 | 91 | 1018.8 |
| 20260507083006 | 56 | 273 | 0.0 | 0.0 | 0.00 | 0.00 | 0.00 | 91 | 1018.8 |
| 20260507082507 | 56 | 273 | 0.0 | 0.0 | 0.00 | 0.00 | 0.00 | 92 | 1018.8 |
| 20260507082005 | 56 | 273 | 0.0 | 1.0 | 0.00 | 0.00 | 0.00 | 92 | 1018.9 |
| 20260507081505 | 56 | 273 | 1.0 | 2.0 | 0.00 | 0.00 | 0.00 | 92 | 1018.7 |
| 20260507080005 | 55 | 273 | 0.0 | 3.0 | 0.00 | 0.00 | 0.00 | 91 | 1018.8 |
| 20260507075505 | 55 | 273 | 0.0 | 0.0 | 0.00 | 0.00 | 0.00 | 90 | 1018.7 |
| 20260507074505 | 56 | 273 | 0.0 | 0.0 | 0.00 | 0.00 | 0.00 | 91 | 1018.8 |
| 20260507074005 | 56 | 273 | 0.0 | 0.0 | 0.00 | 0.00 | 0.00 | 91 | 1018.8 |
| 20260507073505 | 56 | 273 | 0.0 | 0.0 | 0.00 | 0.00 | 0.00 | 91 | 1018.7 |
| 20260507073005 | 56 | 273 | 0.0 | 0.0 | 0.00 | 0.00 | 0.00 | 91 | 1018.8 |
| 20260507072505 | 56 | 273 | 0.0 | 0.0 | 0.00 | 0.00 | 0.00 | 91 | 1018.8 |
| 20260507071505 | 56 | 273 | 0.0 | 0.0 | 0.00 | 0.00 | 0.00 | 92 | 1018.9 |
| 20260507071007 | 55 | 273 | 0.0 | 0.0 | 0.00 | 0.00 | 0.00 | 92 | 1018.9 |
| 20260507070505 | 55 | 273 | 0.0 | 0.0 | 0.00 | 0.00 | 0.00 | 91 | 1018.9 |
| 20260507070010 | 55 | 273 | 0.0 | 0.0 | 0.00 | 0.00 | 0.00 | 91 | 1018.9 |